Time;durP1;ratioP1;P1;durP2;ratioP2;P2;SDS_P1;SDS_P2;PMS_P1;PMS_P2;Temp;Humidity;BMP_temperature;BMP_pressure;BME280_temperature;BME280_humidity;BME280_pressure;Samples;Min_cycle;Max_cycle;Signal;HPM_P1;HPM_P2
2023/12/10 00:01:14;;;;;;;24.23;4.82;;;;;;;7.59;100.00;99670.97;5036090;28;20025;-61
2023/12/10 00:03:39;;;;;;;23.35;4.68;;;;;;;7.60;100.00;99677.84;5051151;28;20017;-60
2023/12/10 00:06:05;;;;;;;23.52;5.35;;;;;;;7.61;100.00;99679.63;5050610;28;20017;-60
2023/12/10 00:08:30;;;;;;;23.55;4.47;;;;;;;7.63;100.00;99677.94;5050764;28;20435;-62
2023/12/10 00:10:56;;;;;;;20.15;4.97;;;;;;;7.64;100.00;99683.16;5049995;28;20431;-60
2023/12/10 00:13:21;;;;;;;24.33;5.53;;;;;;;7.68;100.00;99687.53;5050369;28;20029;-61
2023/12/10 00:15:46;;;;;;;21.35;5.90;;;;;;;7.68;100.00;99682.38;5049892;28;20541;-60
2023/12/10 00:18:13;;;;;;;25.80;5.03;;;;;;;7.71;100.00;99675.56;5050238;28;20037;-61
2023/12/10 00:20:38;;;;;;;24.02;5.00;;;;;;;7.73;100.00;99679.94;5049866;28;20100;-60
2023/12/10 00:23:03;;;;;;;22.08;4.45;;;;;;;7.71;100.00;99683.28;5057723;28;20101;-61
2023/12/10 00:25:31;;;;;;;24.63;4.65;;;;;;;7.74;100.00;99679.06;5061890;28;20349;-61
2023/12/10 00:27:57;;;;;;;24.35;5.35;;;;;;;7.76;100.00;99699.75;5034292;28;20021;-61
2023/12/10 00:30:22;;;;;;;24.55;4.20;;;;;;;7.77;100.00;99686.88;5047613;28;20447;-60
2023/12/10 00:32:47;;;;;;;22.52;5.88;;;;;;;7.74;100.00;99702.28;5050075;28;20400;-60
2023/12/10 00:35:13;;;;;;;21.63;4.88;;;;;;;7.74;100.00;99711.72;5038450;28;20075;-60
2023/12/10 00:37:38;;;;;;;19.20;4.97;;;;;;;7.75;100.00;99718.66;5041657;28;20033;-60
2023/12/10 00:40:06;;;;;;;16.40;4.78;;;;;;;7.76;100.00;99715.22;5040290;28;20028;-61
2023/12/10 00:42:31;;;;;;;20.13;4.55;;;;;;;7.77;100.00;99714.41;5055909;28;20024;-61
2023/12/10 00:44:57;;;;;;;21.13;4.45;;;;;;;7.77;100.00;99716.97;5050552;28;20087;-61
2023/12/10 00:47:22;;;;;;;23.75;5.45;;;;;;;7.78;100.00;99713.56;5045383;28;20107;-61
2023/12/10 00:49:48;;;;;;;22.05;4.07;;;;;;;7.76;100.00;99715.22;5040535;28;20059;-62
2023/12/10 00:52:14;;;;;;;15.07;4.22;;;;;;;7.69;100.00;99724.50;5036916;28;20103;-60
2023/12/10 00:54:39;;;;;;;17.08;4.20;;;;;;;7.67;100.00;99718.44;5054289;28;20021;-61
2023/12/10 00:57:05;;;;;;;16.65;4.05;;;;;;;7.73;100.00;99722.88;5049319;28;20354;-62
2023/12/10 00:59:30;;;;;;;24.65;5.13;;;;;;;7.71;100.00;99733.16;5036739;28;20021;-61
2023/12/10 01:01:55;;;;;;;25.08;4.68;;;;;;;7.71;100.00;99747.75;5048714;28;20099;-62
2023/12/10 01:04:22;;;;;;;23.90;4.28;;;;;;;7.66;100.00;99751.06;5048235;28;20052;-60
2023/12/10 01:06:47;;;;;;;17.40;4.07;;;;;;;7.62;100.00;99733.81;5056096;28;20458;-62
2023/12/10 01:09:15;;;;;;;15.45;4.05;;;;;;;7.63;100.00;99745.84;5054145;28;20025;-61
2023/12/10 01:11:43;;;;;;;25.42;5.20;;;;;;;7.60;100.00;99750.06;5049014;28;20025;-62
2023/12/10 01:14:08;;;;;;;15.40;3.40;;;;;;;7.58;100.00;99742.28;5035685;28;20021;-61
2023/12/10 01:16:33;;;;;;;16.35;3.78;;;;;;;7.60;100.00;99755.22;5048721;28;20033;-61
2023/12/10 01:18:59;;;;;;;21.83;5.32;;;;;;;7.57;100.00;99748.28;5049466;28;20029;-61
2023/12/10 01:21:24;;;;;;;22.98;4.55;;;;;;;7.59;100.00;99762.06;5048650;28;20021;-61
2023/12/10 01:23:54;;;;;;;19.88;4.32;;;;;;;7.56;100.00;99746.50;5039765;28;20025;-60
2023/12/10 01:26:19;;;;;;;23.25;4.57;;;;;;;7.51;100.00;99740.38;5028915;28;20021;-61
2023/12/10 01:28:44;;;;;;;17.52;4.70;;;;;;;7.50;100.00;99754.94;5049424;28;20035;-61
2023/12/10 01:31:09;;;;;;;19.67;4.22;;;;;;;7.53;100.00;99749.03;5037738;28;20439;-61
2023/12/10 01:33:35;;;;;;;16.42;4.28;;;;;;;7.51;100.00;99746.41;5039030;28;20029;-61
2023/12/10 01:36:00;;;;;;;22.13;4.22;;;;;;;7.52;100.00;99773.91;5030400;28;20037;-61
2023/12/10 01:38:25;;;;;;;20.20;4.05;;;;;;;7.52;100.00;99762.75;5037994;28;20035;-60
2023/12/10 01:40:51;;;;;;;17.42;3.65;;;;;;;7.55;100.00;99773.16;5041250;28;20036;-61
2023/12/10 01:43:19;;;;;;;18.75;4.00;;;;;;;7.58;100.00;99768.06;5058329;28;20059;-61
2023/12/10 01:45:50;;;;;;;24.45;4.13;;;;;;;7.57;100.00;99785.22;5045400;28;20028;-60
2023/12/10 01:48:20;;;;;;;14.63;3.85;;;;;;;7.56;100.00;99780.03;5038776;28;20037;-61
2023/12/10 01:50:45;;;;;;;23.17;4.25;;;;;;;7.52;100.00;99783.38;5030541;28;20041;-60
2023/12/10 01:53:10;;;;;;;20.15;3.45;;;;;;;7.48;100.00;99789.28;5057202;28;20021;-61
2023/12/10 01:55:36;;;;;;;20.70;4.65;;;;;;;7.40;100.00;99800.25;5048297;28;20029;-61
2023/12/10 01:58:04;;;;;;;19.60;4.25;;;;;;;7.31;100.00;99803.44;5048199;28;20023;-60
2023/12/10 02:00:29;;;;;;;16.77;3.50;;;;;;;7.31;100.00;99779.34;5048253;28;20043;-60
2023/12/10 02:02:55;;;;;;;17.73;3.65;;;;;;;7.33;100.00;99800.91;5048150;28;20016;-61
2023/12/10 02:05:21;;;;;;;17.80;3.75;;;;;;;7.27;100.00;99799.00;5048701;28;20031;-61
2023/12/10 02:07:46;;;;;;;14.63;3.58;;;;;;;7.26;100.00;99806.69;5038402;28;20472;-61
2023/12/10 02:10:12;;;;;;;16.45;3.42;;;;;;;7.18;100.00;99809.03;5057965;28;20036;-61
2023/12/10 02:12:37;;;;;;;16.73;3.80;;;;;;;7.16;100.00;99816.72;5047009;28;20384;-61
2023/12/10 02:15:19;;;;;;;15.57;3.47;;;;;;;7.13;100.00;99806.34;5048021;28;20397;-61
2023/12/10 02:17:46;;;;;;;15.60;3.55;;;;;;;7.11;100.00;99802.84;5047318;28;20031;-61
2023/12/10 02:20:12;;;;;;;11.68;2.58;;;;;;;7.07;100.00;99806.13;5047962;28;20465;-60
2023/12/10 02:23:00;;;;;;;22.08;4.20;;;;;;;7.03;100.00;99804.31;5044432;28;20409;-60
2023/12/10 02:25:33;;;;;;;16.08;3.35;;;;;;;7.02;100.00;99807.72;5054094;28;20024;-60
2023/12/10 02:27:59;;;;;;;17.00;3.72;;;;;;;7.03;100.00;99799.16;5036697;28;20080;-61
2023/12/10 02:30:25;;;;;;;20.70;4.15;;;;;;;6.99;100.00;99805.06;5047735;28;20055;-61
2023/12/10 02:32:50;;;;;;;16.65;3.47;;;;;;;6.93;100.00;99813.47;5041221;28;20593;-61
2023/12/10 02:35:16;;;;;;;21.10;3.72;;;;;;;6.92;100.00;99830.63;5032543;28;20024;-62
2023/12/10 02:37:42;;;;;;;19.23;3.15;;;;;;;6.98;100.00;99822.19;5051910;28;20025;-61
2023/12/10 02:40:08;;;;;;;15.40;3.15;;;;;;;6.99;100.00;99815.34;5033426;28;20084;-62
2023/12/10 02:42:34;;;;;;;14.25;3.17;;;;;;;7.01;100.00;99818.84;5048034;28;20029;-61
2023/12/10 02:45:00;;;;;;;18.60;4.22;;;;;;;7.02;100.00;99824.06;5038055;28;20024;-62
2023/12/10 02:47:25;;;;;;;18.17;3.67;;;;;;;7.02;100.00;99818.00;5030782;28;20049;-62
2023/12/10 02:49:50;;;;;;;15.45;2.60;;;;;;;7.03;100.00;99827.50;5054518;28;20073;-61
2023/12/10 02:52:15;;;;;;;14.57;2.80;;;;;;;7.04;100.00;99836.97;5054597;28;20476;-61
2023/12/10 02:54:41;;;;;;;16.55;3.33;;;;;;;7.01;100.00;99829.16;5051053;28;20094;-61
2023/12/10 02:57:06;;;;;;;19.70;4.07;;;;;;;7.01;100.00;99831.75;5047185;28;20036;-60
2023/12/10 02:59:31;;;;;;;15.90;3.17;;;;;;;6.98;100.00;99837.66;5046852;28;20039;-61
2023/12/10 03:01:56;;;;;;;14.63;3.25;;;;;;;7.01;100.00;99839.47;5045525;28;20029;-61
2023/12/10 03:04:22;;;;;;;12.40;3.00;;;;;;;7.05;100.00;99841.31;5046589;28;20032;-61
2023/12/10 03:06:47;;;;;;;14.32;2.90;;;;;;;7.05;100.00;99833.59;5047518;28;20029;-61
2023/12/10 03:09:13;;;;;;;14.88;3.63;;;;;;;7.02;100.00;99843.78;5031460;28;20469;-61
2023/12/10 03:11:38;;;;;;;17.08;3.42;;;;;;;6.99;100.00;99854.88;5045966;28;20505;-61
2023/12/10 03:14:04;;;;;;;13.10;2.85;;;;;;;7.00;100.00;99840.31;5048766;28;20087;-61
2023/12/10 03:16:29;;;;;;;21.15;3.30;;;;;;;7.00;100.00;99840.31;5056005;28;20115;-60
2023/12/10 03:18:54;;;;;;;13.88;3.78;;;;;;;7.01;100.00;99857.50;5049051;28;20032;-61
2023/12/10 03:21:20;;;;;;;15.30;3.70;;;;;;;7.02;100.00;99841.19;5033812;28;20025;-61
2023/12/10 03:23:45;;;;;;;21.23;4.13;;;;;;;7.05;100.00;99854.19;5047810;28;20059;-60
2023/12/10 03:26:11;;;;;;;13.30;2.85;;;;;;;7.09;100.00;99856.91;5040417;28;20060;-61
2023/12/10 03:28:36;;;;;;;13.43;3.00;;;;;;;7.07;100.00;99874.00;5040354;28;20157;-61
2023/12/10 03:31:02;;;;;;;11.73;3.00;;;;;;;7.10;100.00;99873.25;5041200;28;20104;-61
2023/12/10 03:33:27;;;;;;;14.35;3.33;;;;;;;7.12;100.00;99881.91;5040017;28;20032;-61
2023/12/10 03:35:52;;;;;;;17.95;3.72;;;;;;;7.13;100.00;99883.63;5053840;28;20055;-60
2023/12/10 03:38:18;;;;;;;14.80;3.53;;;;;;;7.13;100.00;99875.03;5041000;28;20029;-61
2023/12/10 03:40:43;;;;;;;13.00;2.95;;;;;;;7.15;100.00;99887.13;5064029;28;20024;-61
2023/12/10 03:43:08;;;;;;;17.38;3.15;;;;;;;7.20;100.00;99885.56;5041788;28;20028;-60
2023/12/10 03:45:33;;;;;;;13.38;2.97;;;;;;;7.23;100.00;99883.94;5029779;28;20428;-61
2023/12/10 03:47:59;;;;;;;15.68;3.20;;;;;;;7.24;100.00;99885.66;5028926;28;20058;-62
2023/12/10 03:50:24;;;;;;;16.15;3.53;;;;;;;7.27;100.00;99890.91;5041083;28;20086;-61
2023/12/10 03:52:49;;;;;;;21.60;3.42;;;;;;;7.26;100.00;99904.63;5040784;28;20033;-61
2023/12/10 03:55:16;;;;;;;15.88;3.63;;;;;;;7.29;100.00;99903.03;5041188;28;20020;-61
2023/12/10 03:57:42;;;;;;;13.70;3.40;;;;;;;7.35;100.00;99894.59;5052776;28;20075;-61
2023/12/10 04:00:07;;;;;;;18.33;3.90;;;;;;;7.35;100.00;99902.34;5066320;28;20495;-60
2023/12/10 04:02:33;;;;;;;14.50;3.20;;;;;;;7.37;100.00;99890.38;5039234;28;20030;-61
2023/12/10 04:04:58;;;;;;;17.55;3.42;;;;;;;7.39;100.00;99905.88;5039343;28;20090;-62
2023/12/10 04:07:24;;;;;;;14.20;3.72;;;;;;;7.39;100.00;99909.34;5040426;28;20028;-62
2023/12/10 04:09:49;;;;;;;18.83;3.35;;;;;;;7.39;100.00;99890.41;5035395;28;20033;-61
2023/12/10 04:12:14;;;;;;;15.85;3.35;;;;;;;7.37;100.00;99903.25;5034699;28;20382;-61
2023/12/10 04:14:39;;;;;;;16.55;3.10;;;;;;;7.37;100.00;99933.31;5042985;28;20029;-61
2023/12/10 04:17:05;;;;;;;12.45;3.00;;;;;;;7.41;100.00;99914.53;5043373;28;20029;-61
2023/12/10 04:19:30;;;;;;;13.95;3.28;;;;;;;7.38;100.00;99915.31;5050604;28;20381;-61
2023/12/10 04:21:55;;;;;;;13.82;3.03;;;;;;;7.39;100.00;99936.81;5050605;28;20476;-60
2023/12/10 04:24:20;;;;;;;14.52;3.53;;;;;;;7.38;100.00;99929.88;5060999;28;20071;-60
2023/12/10 04:26:46;;;;;;;16.25;3.30;;;;;;;7.38;100.00;99925.63;5060529;28;20031;-62
2023/12/10 04:29:11;;;;;;;19.63;4.28;;;;;;;7.37;100.00;99941.94;5056443;28;20390;-61
2023/12/10 04:31:37;;;;;;;13.40;3.33;;;;;;;7.35;100.00;99945.28;5043697;28;20037;-60
2023/12/10 04:34:02;;;;;;;16.52;3.60;;;;;;;7.37;100.00;99949.66;5061216;28;20027;-60
2023/12/10 04:36:27;;;;;;;16.90;3.20;;;;;;;7.42;100.00;99942.94;5060839;28;20036;-60
2023/12/10 04:38:52;;;;;;;12.75;3.97;;;;;;;7.41;100.00;99951.47;5037759;28;20279;-60
2023/12/10 04:41:18;;;;;;;12.93;3.38;;;;;;;7.41;100.00;99951.47;5039879;28;20029;-62
2023/12/10 04:43:43;;;;;;;16.20;3.28;;;;;;;7.42;100.00;99960.09;5043393;28;20480;-61
2023/12/10 04:46:09;;;;;;;15.98;3.42;;;;;;;7.45;100.00;99961.06;5046593;28;20025;-60
2023/12/10 04:48:34;;;;;;;13.52;3.67;;;;;;;7.47;100.00;99976.59;5032029;28;20113;-60
2023/12/10 04:50:59;;;;;;;14.73;2.92;;;;;;;7.50;100.00;99983.56;5040890;28;20033;-61
2023/12/10 04:53:24;;;;;;;16.40;3.17;;;;;;;7.51;100.00;99977.56;5049309;28;20484;-60
2023/12/10 04:55:50;;;;;;;13.77;3.05;;;;;;;7.50;100.00;99937.16;5037917;28;20102;-60
2023/12/10 04:58:15;;;;;;;17.98;3.55;;;;;;;7.52;100.00;99984.47;5046645;28;20033;-61
2023/12/10 05:00:40;;;;;;;13.80;4.00;;;;;;;7.49;100.00;99997.25;5049843;28;20036;-61
2023/12/10 05:03:07;;;;;;;11.63;2.90;;;;;;;7.53;100.00;99999.09;5053864;28;20028;-61
2023/12/10 05:05:32;;;;;;;12.43;3.85;;;;;;;7.53;100.00;100004.25;5069936;28;20028;-61
2023/12/10 05:07:57;;;;;;;16.10;3.08;;;;;;;7.54;100.00;99993.09;5064372;28;20023;-62
2023/12/10 05:10:23;;;;;;;12.27;2.55;;;;;;;7.60;100.00;100019.09;5038352;28;20465;-60
2023/12/10 05:12:48;;;;;;;18.90;3.67;;;;;;;7.60;100.00;100020.78;5047422;28;20021;-61
2023/12/10 05:15:15;;;;;;;15.13;3.45;;;;;;;7.61;100.00;100028.56;5048684;28;20039;-62
2023/12/10 05:17:40;;;;;;;21.02;3.83;;;;;;;7.62;100.00;100019.13;5048287;28;20907;-61
2023/12/10 05:20:07;;;;;;;14.48;3.85;;;;;;;7.60;100.00;100026.84;5050391;28;20067;-61
2023/12/10 05:22:33;;;;;;;16.65;3.92;;;;;;;7.63;100.00;100038.94;5049119;28;20495;-61
2023/12/10 05:24:58;;;;;;;12.95;2.72;;;;;;;7.66;100.00;100034.75;5048956;28;20036;-60
2023/12/10 05:27:23;;;;;;;16.48;3.47;;;;;;;7.64;100.00;100041.59;5049224;28;20021;-60
2023/12/10 05:29:49;;;;;;;11.13;2.83;;;;;;;7.67;100.00;100038.22;5049223;28;20024;-61
2023/12/10 05:32:14;;;;;;;20.38;3.92;;;;;;;7.63;100.00;100056.97;5048709;28;20146;-60
2023/12/10 05:34:40;;;;;;;17.02;2.88;;;;;;;7.64;100.00;100031.28;5049352;28;20056;-61
2023/12/10 05:37:06;;;;;;;10.80;3.35;;;;;;;7.66;100.00;100049.38;5048765;28;20366;-61
2023/12/10 05:39:31;;;;;;;16.23;2.72;;;;;;;7.67;100.00;100071.72;5049031;28;20040;-61
2023/12/10 05:41:56;;;;;;;12.65;3.22;;;;;;;7.66;100.00;100059.69;5048349;28;20415;-60
2023/12/10 05:44:21;;;;;;;18.08;3.42;;;;;;;7.65;100.00;100058.78;5049619;28;20037;-62
2023/12/10 05:46:46;;;;;;;15.00;3.28;;;;;;;7.63;100.00;100081.06;5048742;28;20496;-62
2023/12/10 05:49:12;;;;;;;14.77;2.80;;;;;;;7.67;100.00;100080.34;5049881;28;20035;-62
2023/12/10 05:51:37;;;;;;;17.13;4.07;;;;;;;7.70;100.00;100076.97;5045247;28;20025;-61
2023/12/10 05:54:03;;;;;;;17.83;3.58;;;;;;;7.67;100.00;100079.47;5050108;28;20044;-61
2023/12/10 05:56:28;;;;;;;17.25;3.75;;;;;;;7.64;100.00;100085.44;5048838;28;20579;-60
2023/12/10 05:58:53;;;;;;;14.52;4.03;;;;;;;7.61;100.00;100087.88;5048604;28;20119;-61
2023/12/10 06:01:19;;;;;;;16.95;3.08;;;;;;;7.64;100.00;100098.31;5048257;28;20100;-60
2023/12/10 06:03:44;;;;;;;14.57;3.08;;;;;;;7.65;100.00;100100.06;5048757;28;20413;-61
2023/12/10 06:06:09;;;;;;;16.23;3.25;;;;;;;7.68;100.00;100097.56;5048124;28;20499;-61
2023/12/10 06:08:34;;;;;;;12.75;3.70;;;;;;;7.72;100.00;100119.19;5039752;28;20103;-61
2023/12/10 06:11:00;;;;;;;13.50;2.72;;;;;;;7.72;100.00;100110.59;5044834;28;20031;-60
2023/12/10 06:13:27;;;;;;;12.27;3.10;;;;;;;7.69;100.00;100117.41;5048462;28;20098;-61
2023/12/10 06:15:54;;;;;;;14.80;3.20;;;;;;;7.67;100.00;100124.19;5034368;28;20119;-61
2023/12/10 06:18:20;;;;;;;14.93;2.85;;;;;;;7.69;100.00;100138.03;5048599;28;20530;-60
2023/12/10 06:20:45;;;;;;;17.10;3.50;;;;;;;7.68;100.00;100133.66;5047571;28;20045;-61
2023/12/10 06:23:10;;;;;;;16.63;3.38;;;;;;;7.71;100.00;100152.66;5048536;28;20048;-61
2023/12/10 06:25:35;;;;;;;17.92;2.97;;;;;;;7.74;100.00;100137.28;5048803;28;20028;-61
2023/12/10 06:28:01;;;;;;;17.80;3.63;;;;;;;7.72;100.00;100144.13;5048603;28;20025;-60
2023/12/10 06:30:26;;;;;;;16.13;4.25;;;;;;;7.69;100.00;100148.34;5048654;28;20028;-61
2023/12/10 06:32:51;;;;;;;13.48;3.35;;;;;;;7.67;100.00;100162.00;5047712;28;20040;-61
2023/12/10 06:35:17;;;;;;;17.42;3.10;;;;;;;7.66;100.00;100181.75;5046871;28;20129;-60
2023/12/10 06:37:43;;;;;;;14.77;3.63;;;;;;;7.65;100.00;100185.16;5039631;28;20032;-60
2023/12/10 06:40:09;;;;;;;16.25;3.20;;;;;;;7.64;100.00;100186.00;5054991;28;20350;-62
2023/12/10 06:42:35;;;;;;;16.73;3.42;;;;;;;7.65;100.00;100189.44;5039597;28;20032;-62
2023/12/10 06:45:03;;;;;;;18.92;3.70;;;;;;;7.68;100.00;100190.41;5055667;28;20055;-60
2023/12/10 06:47:28;;;;;;;17.73;3.67;;;;;;;7.69;100.00;100206.78;5047139;28;20453;-61
2023/12/10 06:49:53;;;;;;;16.40;3.42;;;;;;;7.68;100.00;100215.34;5045502;28;20029;-62
2023/12/10 06:52:19;;;;;;;13.30;3.25;;;;;;;7.67;100.00;100222.19;5039062;28;20108;-62
2023/12/10 06:54:44;;;;;;;14.15;3.22;;;;;;;7.66;100.00;100229.88;5047589;28;20472;-61
2023/12/10 06:57:09;;;;;;;17.60;3.97;;;;;;;7.63;100.00;100222.91;5064267;28;20029;-62
2023/12/10 06:59:35;;;;;;;15.48;4.25;;;;;;;7.63;100.00;100247.81;5056408;28;20044;-61
2023/12/10 07:02:00;;;;;;;14.25;2.78;;;;;;;7.64;100.00;100245.31;5038319;28;20033;-61
2023/12/10 07:04:25;;;;;;;12.77;3.42;;;;;;;7.63;100.00;100247.81;5049834;28;20056;-60
2023/12/10 07:06:51;;;;;;;15.57;3.78;;;;;;;7.60;100.00;100240.88;5045195;28;20025;-60
2023/12/10 07:09:16;;;;;;;16.90;4.25;;;;;;;7.59;100.00;100245.97;5032588;28;20037;-61
2023/12/10 07:11:41;;;;;;;13.70;3.08;;;;;;;7.57;100.00;100251.09;5044629;28;20505;-61
2023/12/10 07:14:06;;;;;;;23.52;4.68;;;;;;;7.59;100.00;100264.88;5042293;28;20033;-61
2023/12/10 07:16:32;;;;;;;16.13;3.60;;;;;;;7.58;100.00;100257.97;5042693;28;20067;-60
2023/12/10 07:18:57;;;;;;;17.60;3.67;;;;;;;7.62;100.00;100244.38;5064185;28;20042;-61
2023/12/10 07:21:22;;;;;;;14.18;3.05;;;;;;;7.62;100.00;100246.97;5055602;28;20369;-60
2023/12/10 07:23:48;;;;;;;20.63;3.20;;;;;;;7.64;100.00;100252.16;5054960;28;20028;-61
2023/12/10 07:26:16;;;;;;;13.90;3.35;;;;;;;7.61;100.00;100270.97;5044915;28;20519;-62
2023/12/10 07:28:41;;;;;;;15.77;3.38;;;;;;;7.64;100.00;100268.53;5054459;28;20560;-61
2023/12/10 07:31:07;;;;;;;14.50;2.92;;;;;;;7.61;100.00;100277.84;5034778;28;20127;-61
2023/12/10 07:33:32;;;;;;;15.70;3.40;;;;;;;7.60;100.00;100292.44;5048282;28;20373;-60
2023/12/10 07:35:58;;;;;;;10.63;2.80;;;;;;;7.59;100.00;100300.97;5041778;28;20021;-60
2023/12/10 07:38:23;;;;;;;12.13;2.58;;;;;;;7.57;100.00;100297.50;5043832;28;20021;-60
2023/12/10 07:40:48;;;;;;;13.80;3.78;;;;;;;7.57;100.00;100310.38;5042730;28;20025;-61
2023/12/10 07:43:13;;;;;;;16.40;3.53;;;;;;;7.60;100.00;100309.59;5043236;28;20393;-61
2023/12/10 07:45:38;;;;;;;16.50;3.28;;;;;;;7.56;100.00;100317.25;5029219;28;20029;-61
2023/12/10 07:48:04;;;;;;;16.45;3.10;;;;;;;7.54;100.00;100318.00;5047024;28;20053;-61
2023/12/10 07:50:29;;;;;;;19.25;3.38;;;;;;;7.54;100.00;100325.72;5046630;28;20075;-61
2023/12/10 07:52:54;;;;;;;13.10;2.85;;;;;;;7.53;100.00;100347.19;5046055;28;20056;-62
2023/12/10 07:55:20;;;;;;;13.40;3.53;;;;;;;7.51;100.00;100354.00;5043116;28;20119;-61
2023/12/10 07:57:45;;;;;;;14.75;3.90;;;;;;;7.54;100.00;100346.34;5041596;28;20689;-61
2023/12/10 08:00:11;;;;;;;16.40;3.45;;;;;;;7.57;100.00;100355.09;5047538;28;20075;-62
2023/12/10 08:02:36;;;;;;;12.90;3.42;;;;;;;7.56;100.00;100355.03;5057808;28;20024;-61
2023/12/10 08:05:03;;;;;;;16.00;4.40;;;;;;;7.54;100.00;100365.28;5051414;28;20021;-62
2023/12/10 08:07:28;;;;;;;16.17;4.35;;;;;;;7.53;100.00;100352.34;5046355;28;20469;-61
2023/12/10 08:09:53;;;;;;;17.60;3.33;;;;;;;7.53;100.00;100370.41;5036823;28;20076;-61
2023/12/10 08:12:18;;;;;;;17.90;3.42;;;;;;;7.52;100.00;100361.78;5038886;28;20064;-61
2023/12/10 08:14:45;;;;;;;14.50;3.10;;;;;;;7.51;100.00;100384.94;5054080;28;20484;-62
2023/12/10 08:17:10;;;;;;;19.83;3.53;;;;;;;7.52;100.00;100371.25;5054081;28;20075;-61
2023/12/10 08:19:36;;;;;;;16.88;3.80;;;;;;;7.53;100.00;100379.03;5050789;28;20336;-61
2023/12/10 08:22:02;;;;;;;19.08;5.00;;;;;;;7.54;100.00;100385.03;5054529;28;20036;-61
2023/12/10 08:24:27;;;;;;;15.50;3.55;;;;;;;7.55;100.00;100381.66;5044840;28;20456;-61
2023/12/10 08:26:53;;;;;;;18.25;3.90;;;;;;;7.51;100.00;100395.25;5059095;28;20060;-60
2023/12/10 08:29:18;;;;;;;17.75;4.05;;;;;;;7.52;100.00;100400.44;5048988;28;20051;-61
2023/12/10 08:31:44;;;;;;;19.25;4.10;;;;;;;7.52;100.00;100408.19;5045443;28;20460;-60
2023/12/10 08:34:09;;;;;;;18.60;4.63;;;;;;;7.52;100.00;100403.03;5049231;28;20021;-61
2023/12/10 08:36:34;;;;;;;19.60;3.75;;;;;;;7.50;100.00;100412.41;5047412;28;20021;-61
2023/12/10 08:39:00;;;;;;;18.88;4.13;;;;;;;7.50;100.00;100403.81;5049920;28;20024;-60
2023/12/10 08:41:26;;;;;;;20.55;3.55;;;;;;;7.50;100.00;100411.53;5051725;28;20063;-62
2023/12/10 08:43:51;;;;;;;23.13;3.85;;;;;;;7.49;100.00;100417.50;5046066;28;20049;-62
2023/12/10 08:46:16;;;;;;;17.17;3.60;;;;;;;7.50;100.00;100406.38;5046088;28;20029;-61
2023/12/10 08:48:42;;;;;;;18.08;3.13;;;;;;;7.53;100.00;100421.97;5048596;28;20053;-60
2023/12/10 08:51:07;;;;;;;19.67;3.72;;;;;;;7.53;100.00;100422.84;5049531;28;20067;-61
2023/12/10 08:53:33;;;;;;;16.42;3.75;;;;;;;7.54;100.00;100426.28;5049052;28;20040;-59
2023/12/10 08:55:58;;;;;;;19.02;3.55;;;;;;;7.56;100.00;100429.81;5049420;28;20558;-60
2023/12/10 08:58:23;;;;;;;21.08;3.75;;;;;;;7.58;100.00;100433.34;5047806;28;20035;-60
2023/12/10 09:00:48;;;;;;;14.38;3.50;;;;;;;7.61;100.00;100437.75;5052106;28;20036;-61
2023/12/10 09:03:14;;;;;;;15.23;3.33;;;;;;;7.63;100.00;100434.38;5046008;28;20029;-60
2023/12/10 09:05:39;;;;;;;16.10;2.83;;;;;;;7.64;100.00;100436.16;5050232;28;20582;-60
2023/12/10 09:08:06;;;;;;;15.18;3.22;;;;;;;7.65;100.00;100437.00;5057224;28;20020;-61
2023/12/10 09:10:31;;;;;;;18.23;3.67;;;;;;;7.62;100.00;100442.97;5052902;28;20025;-60
2023/12/10 09:12:57;;;;;;;16.42;3.42;;;;;;;7.65;100.00;100449.91;5046130;28;20021;-61
2023/12/10 09:15:22;;;;;;;13.90;3.85;;;;;;;7.63;100.00;100447.28;5048788;28;20033;-61
2023/12/10 09:17:47;;;;;;;16.90;3.65;;;;;;;7.61;100.00;100453.22;5049175;28;20033;-62
2023/12/10 09:20:13;;;;;;;14.88;4.05;;;;;;;7.59;100.00;100454.84;5052801;28;20086;-61
2023/12/10 09:22:39;;;;;;;18.73;3.47;;;;;;;7.60;100.00;100457.50;5049111;28;20483;-62
2023/12/10 09:25:04;;;;;;;19.00;3.33;;;;;;;7.60;100.00;100457.50;5067648;28;20122;-61
2023/12/10 09:27:30;;;;;;;21.77;3.65;;;;;;;7.58;100.00;100453.97;5061084;28;20013;-61
2023/12/10 09:29:56;;;;;;;18.98;4.03;;;;;;;7.59;100.00;100455.72;5040291;28;20029;-60
2023/12/10 09:32:23;;;;;;;18.55;3.58;;;;;;;7.59;100.00;100460.88;5056320;28;20144;-61
2023/12/10 09:34:50;;;;;;;13.85;3.40;;;;;;;7.62;100.00;100454.97;5047325;28;20036;-62
2023/12/10 09:37:16;;;;;;;14.43;3.03;;;;;;;7.61;100.00;100459.22;5048834;28;20056;-61
2023/12/10 09:39:41;;;;;;;13.45;3.10;;;;;;;7.66;100.00;100457.69;5049123;28;20555;-62
2023/12/10 09:42:07;;;;;;;21.73;3.38;;;;;;;7.72;100.00;100461.38;5047815;28;20095;-62
2023/12/10 09:44:32;;;;;;;17.65;4.05;;;;;;;7.73;100.00;100457.94;5048525;28;20108;-62
2023/12/10 09:46:59;;;;;;;14.30;3.42;;;;;;;7.73;100.00;100463.09;5033788;28;20029;-62
2023/12/10 09:49:26;;;;;;;18.23;3.17;;;;;;;7.74;100.00;100458.00;5047665;28;20016;-62
2023/12/10 09:51:52;;;;;;;15.70;3.63;;;;;;;7.77;100.00;100457.25;5058891;28;20029;-61
2023/12/10 09:54:20;;;;;;;20.98;4.47;;;;;;;7.85;100.00;100463.56;5048929;28;20439;-62
2023/12/10 09:56:47;;;;;;;18.63;3.42;;;;;;;7.84;100.00;100459.25;5048602;28;20025;-62
2023/12/10 09:59:12;;;;;;;20.50;3.92;;;;;;;7.83;100.00;100460.03;5041337;28;20017;-62
2023/12/10 10:01:38;;;;;;;12.35;3.20;;;;;;;7.85;100.00;100458.41;5053416;28;20033;-62
2023/12/10 10:04:04;;;;;;;19.83;3.63;;;;;;;7.86;100.00;100455.00;5042064;28;20040;-62
2023/12/10 10:06:29;;;;;;;20.77;3.85;;;;;;;7.95;100.00;100451.00;5048615;28;20459;-62
2023/12/10 10:08:54;;;;;;;16.48;3.35;;;;;;;7.95;100.00;100458.75;5039136;28;20461;-62
2023/12/10 10:11:19;;;;;;;16.17;3.22;;;;;;;7.93;100.00;100450.97;5053062;28;20072;-62
2023/12/10 10:13:51;;;;;;;17.35;3.50;;;;;;;7.96;100.00;100457.91;5041967;28;20025;-61
2023/12/10 10:16:17;;;;;;;18.25;3.95;;;;;;;8.00;100.00;100457.22;5034914;28;20472;-62
2023/12/10 10:18:43;;;;;;;16.40;3.55;;;;;;;8.02;100.00;100455.56;5058548;28;20052;-63
2023/12/10 10:21:10;;;;;;;15.00;3.42;;;;;;;8.02;100.00;100458.16;5047150;28;20064;-62
2023/12/10 10:23:35;;;;;;;24.23;4.07;;;;;;;8.02;100.00;100435.78;5037036;28;20049;-61
2023/12/10 10:26:01;;;;;;;17.75;3.95;;;;;;;8.07;100.00;100437.66;5042732;28;20072;-62
2023/12/10 10:28:27;;;;;;;16.65;3.50;;;;;;;8.08;100.00;100429.97;5030051;28;20029;-63
2023/12/10 10:30:56;;;;;;;19.15;3.42;;;;;;;8.13;100.00;100443.91;5037110;28;20024;-62
2023/12/10 10:33:24;;;;;;;15.18;3.50;;;;;;;8.18;100.00;100457.00;5036565;28;20484;-63
2023/12/10 10:35:52;;;;;;;13.65;3.00;;;;;;;8.20;100.00;100455.38;5030585;28;20527;-62
2023/12/10 10:38:18;;;;;;;14.90;2.97;;;;;;;8.23;100.00;100450.31;5042395;28;20255;-63
2023/12/10 10:40:44;;;;;;;13.75;3.22;;;;;;;8.28;100.00;100464.25;5041287;28;20021;-61
2023/12/10 10:43:09;;;;;;;15.48;2.85;;;;;;;8.32;100.00;100460.06;5039837;28;20210;-61
2023/12/10 10:45:34;;;;;;;12.85;3.15;;;;;;;8.38;100.00;100465.44;5045953;28;20421;-61
2023/12/10 10:48:00;;;;;;;14.23;3.28;;;;;;;8.44;100.00;100463.91;5044047;28;20041;-62
2023/12/10 10:50:25;;;;;;;15.38;3.42;;;;;;;8.51;100.00;100468.44;5032442;28;20425;-61
2023/12/10 10:52:53;;;;;;;14.80;2.67;;;;;;;8.58;100.00;100475.59;5055266;28;20028;-62
2023/12/10 10:55:19;;;;;;;15.02;3.25;;;;;;;8.61;100.00;100473.16;5045152;28;20063;-61
2023/12/10 10:57:45;;;;;;;11.88;3.10;;;;;;;8.65;100.00;100472.41;5058038;28;20052;-62
2023/12/10 11:00:30;;;;;;;14.65;3.25;;;;;;;8.71;100.00;100445.03;5045094;28;20539;-62
2023/12/10 11:03:02;;;;;;;14.30;3.47;;;;;;;8.84;100.00;100442.03;5044653;28;20021;-62
2023/12/10 11:05:34;;;;;;;13.10;2.85;;;;;;;8.86;100.00;100455.88;5046744;28;20047;-61
2023/12/10 11:08:00;;;;;;;18.83;3.40;;;;;;;8.89;100.00;100458.56;5044907;28;20120;-61
2023/12/10 11:10:26;;;;;;;13.98;2.70;;;;;;;8.89;100.00;100450.81;5045736;28;20532;-61
2023/12/10 11:12:53;;;;;;;11.57;2.78;;;;;;;8.91;100.00;100445.69;5043550;28;20043;-62
2023/12/10 11:15:23;;;;;;;16.35;3.33;;;;;;;8.89;100.00;100445.66;5037112;28;20060;-62